METAR rapporten vliegvelden

   
LEMG - Malaga
Gewijzigd: 19-08-2018 09:00
Gedeeltelijk bewolkt  
Gedeeltelijk bewolkt  
   Wind: Zuiden 5.6 km/h
Wind: Zuiden 5.6 km/h
Temperatuur: 26°C
Dauwpunt: 20°C
Vochtigheid: 70%
Barometer: 1017 hPa
Bewolking: Gedeeltelijk bewolkt
Zicht: meer dan 10 km
Bewolking: Gedeeltelijk bewolkt 2300 ft
LEMG 190700Z 18003KT 140V230 9999 SCT023 26/20 Q1017 NOSIG
LEAL - Alicante
Gewijzigd: 19-08-2018 09:00
Licht bewolkt  
Licht bewolkt  
   Wind: NNO 11.1 km/h
Wind: NNO 11.1 km/h
Temperatuur: 25°C
Dauwpunt: 18°C
Vochtigheid: 65%
Barometer: 1020 hPa
Bewolking: Licht bewolkt
Zicht: meer dan 10 km
Bewolking: Licht bewolkt 3900 ft
LEAL 190700Z 02006KT 350V050 9999 FEW039 25/18 Q1020 NOSIG
LEBB - Bilbao
Gewijzigd: 19-08-2018 09:00
Licht bewolkt  
Licht bewolkt  
   Wind: OZO 5.6 km/h
Wind: OZO 5.6 km/h
Temperatuur: 16°C
Dauwpunt: 15°C
Vochtigheid: 94%
Barometer: 1024 hPa
Bewolking: Licht bewolkt
Zicht: meer dan 10 km
Bewolking: Licht bewolkt 2600 ft
LEBB 190700Z 11003KT 070V150 9999 FEW026 16/15 Q1024 NOSIG
GCTS - Tenerife
Gewijzigd: 19-08-2018 09:00
Licht bewolkt  
Licht bewolkt  
   Wind: ONO 11.1 km/h
Wind: ONO 11.1 km/h
Temperatuur: 21°C
Dauwpunt: 16°C
Vochtigheid: 73%
Barometer: 1016 hPa
Bewolking: Licht bewolkt
Zicht: meer dan 10 km
Bewolking: Licht bewolkt 2500 ft
GCTS 190700Z 06006KT 9999 FEW025 21/16 Q1016 NOSIG
EIDW - Dublin
Gewijzigd: 19-08-2018 09:00
Grotendeels bewolkt  
Grotendeels bewolkt  
   Wind: Westen 27.8 km/h
Wind: Westen 27.8 km/h
Temperatuur: 16°C
Dauwpunt: 15°C
Vochtigheid: 94%
Barometer: 1013 hPa
Bewolking: Grotendeels bewolkt
Zicht: meer dan 10 km
Bewolking: Licht bewolkt 600 ft,
Grotendeels bewolkt 1100 ft
EIDW 190700Z 26015KT 9999 FEW006 BKN011 16/15 Q1013 TEMPO 5000 BKN008
LPFR - Albufeira
Gewijzigd: 19-08-2018 09:00
Helder  
Helder  
   Wind: NNO 13 km/h
Wind: NNO 13 km/h
Temperatuur: 25°C
Dauwpunt: 16°C
Vochtigheid: 57%
Barometer: 1014 hPa
Zicht: meer dan 10 km
Bewolking: Helder
LPFR 190700Z 03007KT 350V070 CAVOK 25/16 Q1014

Script ontwikkeld door  Saratoga-weather.org Aangepast voor de template door  Weerstation Leuven

U vindt ons ook hier:

Het Weer Aktueel

European Weather Network

WeatherCloud

Weather Underground

Benelux Weer Netwerk

WeatherlinkIP

Apparatuur in gebruik:

Weerstation
Davis VP2

Weerprogramma
consoleWD

Weercomputer
Raspberry

Gesponsord door
Stef van Bakel koeltechniek

Davis VP2

consoleWD

Raspberry

Stef van Bakel koeltechniek